createdAt,value
2023-03-01T00:00:27.900Z,100.00
2023-03-01T00:01:59.978Z,100.00
2023-03-01T00:03:33.019Z,100.00
2023-03-01T00:05:05.582Z,100.00
2023-03-01T00:06:38.507Z,100.00
2023-03-01T00:08:10.300Z,100.00
2023-03-01T00:09:42.468Z,100.00
2023-03-01T00:11:16.742Z,100.00
2023-03-01T00:12:48.625Z,100.00
2023-03-01T00:14:20.591Z,100.00
2023-03-01T00:15:52.608Z,100.00
2023-03-01T00:17:24.547Z,100.00
2023-03-01T00:18:56.933Z,100.00
2023-03-01T00:20:28.932Z,100.00
2023-03-01T00:22:00.902Z,100.00
2023-03-01T00:23:35.238Z,100.00
2023-03-01T00:25:07.385Z,100.00
2023-03-01T00:26:39.719Z,100.00
2023-03-01T00:28:11.688Z,100.00
2023-03-01T00:29:43.595Z,100.00
2023-03-01T00:31:23.315Z,100.00
2023-03-01T00:32:55.232Z,100.00
2023-03-01T00:34:28.802Z,100.00
2023-03-01T00:36:01.151Z,100.00
2023-03-01T00:37:33.025Z,100.00
2023-03-01T00:39:08.682Z,100.00
2023-03-01T00:40:40.617Z,100.00
2023-03-01T00:42:12.504Z,100.00
2023-03-01T00:43:45.492Z,100.00
2023-03-01T00:45:17.988Z,100.00
2023-03-01T00:46:49.927Z,100.00
2023-03-01T00:48:21.910Z,100.00
2023-03-01T00:49:54.636Z,100.00
2023-03-01T00:51:28.681Z,100.00
2023-03-01T00:53:02.257Z,100.00
2023-03-01T00:54:34.621Z,100.00
2023-03-01T00:56:08.543Z,100.00
2023-03-01T00:57:40.555Z,100.00
2023-03-01T00:59:12.762Z,100.00
2023-03-01T01:00:45.233Z,100.00
2023-03-01T01:02:17.321Z,100.00
2023-03-01T01:03:50.072Z,100.00
2023-03-01T01:05:22.150Z,100.00
2023-03-01T01:06:54.208Z,100.00
2023-03-01T01:08:26.289Z,100.00
2023-03-01T01:09:58.438Z,100.00
2023-03-01T01:11:34.127Z,100.00
2023-03-01T01:13:06.235Z,100.00
2023-03-01T01:14:38.517Z,100.00
2023-03-01T01:16:10.630Z,100.00
2023-03-01T01:17:42.861Z,100.00
2023-03-01T01:19:15.414Z,100.00
2023-03-01T01:20:47.689Z,100.00
2023-03-01T01:22:19.696Z,100.00
2023-03-01T01:23:52.475Z,100.00
2023-03-01T01:25:26.275Z,100.00
2023-03-01T01:26:58.296Z,100.00
2023-03-01T01:28:30.362Z,100.00
2023-03-01T01:30:02.511Z,100.00
2023-03-01T01:31:36.374Z,100.00
2023-03-01T01:33:08.502Z,100.00
2023-03-01T01:34:40.544Z,100.00
2023-03-01T01:36:12.952Z,100.00
2023-03-01T01:37:45.001Z,100.00
2023-03-01T01:39:17.105Z,100.00
2023-03-01T01:40:50.542Z,100.00
2023-03-01T01:42:22.667Z,100.00
2023-03-01T01:44:30.248Z,100.00
2023-03-01T01:46:14.604Z,100.00
2023-03-01T01:47:49.835Z,100.00
2023-03-01T01:49:38.879Z,100.00
2023-03-01T01:51:16.670Z,100.00
2023-03-01T01:52:50.126Z,100.00
2023-03-01T01:54:26.999Z,100.00
2023-03-01T01:56:01.808Z,100.00
2023-03-01T01:57:43.275Z,100.00
2023-03-01T01:59:15.967Z,100.00
2023-03-01T02:00:49.153Z,100.00
2023-03-01T02:02:22.084Z,100.00
2023-03-01T02:03:54.063Z,100.00
2023-03-01T02:05:51.038Z,100.00
2023-03-01T02:07:27.439Z,100.00
2023-03-01T02:09:02.439Z,100.00
2023-03-01T02:10:36.104Z,100.00
2023-03-01T02:12:08.955Z,100.00
2023-03-01T02:13:42.943Z,100.00
2023-03-01T02:15:15.059Z,100.00
2023-03-01T02:16:47.840Z,100.00
2023-03-01T02:18:21.817Z,100.00
2023-03-01T02:20:01.311Z,100.00
2023-03-01T02:21:52.104Z,100.00
2023-03-01T02:23:24.310Z,100.00
2023-03-01T02:24:56.315Z,100.00
2023-03-01T02:26:38.213Z,100.00
2023-03-01T02:28:24.080Z,100.00
2023-03-01T02:29:57.852Z,100.00
2023-03-01T02:31:45.111Z,100.00
2023-03-01T02:33:17.867Z,100.00
2023-03-01T02:34:50.049Z,100.00
2023-03-01T02:36:26.100Z,100.00
2023-03-01T02:38:01.883Z,100.00
2023-03-01T02:40:01.107Z,100.00
2023-03-01T02:41:37.469Z,100.00
2023-03-01T02:43:10.449Z,100.00
2023-03-01T02:44:42.626Z,100.00
2023-03-01T02:46:17.478Z,100.00
2023-03-01T02:47:51.986Z,100.00
2023-03-01T02:49:50.962Z,100.00
2023-03-01T02:51:47.892Z,100.00
2023-03-01T02:53:41.446Z,100.00
2023-03-01T02:55:15.850Z,100.00
2023-03-01T02:56:50.111Z,100.00
2023-03-01T02:58:24.475Z,100.00
2023-03-01T02:59:58.934Z,100.00
2023-03-01T03:01:39.867Z,100.00
2023-03-01T03:03:18.390Z,100.00
2023-03-01T03:04:50.532Z,100.00
2023-03-01T03:06:29.265Z,100.00
2023-03-01T03:08:02.936Z,100.00
2023-03-01T03:09:38.170Z,100.00
2023-03-01T03:11:10.256Z,100.00
2023-03-01T03:12:43.334Z,100.00
2023-03-01T03:14:16.675Z,100.00
2023-03-01T03:15:51.172Z,100.00
2023-03-01T03:17:23.382Z,100.00
2023-03-01T03:18:55.488Z,100.00
2023-03-01T03:20:29.019Z,100.00
2023-03-01T03:22:01.138Z,100.00
2023-03-01T03:23:33.246Z,100.00
2023-03-01T03:25:05.731Z,100.00
2023-03-01T03:26:38.000Z,100.00
2023-03-01T03:28:13.025Z,100.00
2023-03-01T03:29:45.112Z,100.00
2023-03-01T03:31:17.433Z,100.00
2023-03-01T03:32:53.540Z,100.00
2023-03-01T03:34:25.987Z,100.00
2023-03-01T03:35:58.195Z,100.00
2023-03-01T03:37:48.897Z,100.00
2023-03-01T03:39:21.625Z,100.00
2023-03-01T03:41:03.712Z,100.00
2023-03-01T03:42:36.074Z,100.00
2023-03-01T03:44:10.886Z,100.00
2023-03-01T03:45:43.171Z,100.00
2023-03-01T03:47:15.434Z,100.00
2023-03-01T03:48:47.635Z,100.00
2023-03-01T03:50:20.175Z,100.00
2023-03-01T03:51:52.182Z,100.00
2023-03-01T03:53:26.123Z,100.00
2023-03-01T03:54:58.356Z,100.00
2023-03-01T03:56:30.740Z,100.00
2023-03-01T03:58:08.130Z,100.00
2023-03-01T03:59:40.236Z,100.00
2023-03-01T04:01:12.474Z,100.00
2023-03-01T04:02:44.872Z,100.00
2023-03-01T04:04:20.146Z,100.00
2023-03-01T04:05:53.082Z,100.00
2023-03-01T04:07:25.079Z,100.00
2023-03-01T04:09:17.683Z,100.00
2023-03-01T04:10:52.611Z,100.00
2023-03-01T04:12:24.661Z,100.00
2023-03-01T04:13:58.883Z,100.00
2023-03-01T04:15:31.990Z,100.00
2023-03-01T04:17:06.461Z,100.00
2023-03-01T04:18:38.483Z,100.00
2023-03-01T04:20:25.973Z,100.00
2023-03-01T04:21:58.126Z,100.00
2023-03-01T04:23:30.371Z,100.00
2023-03-01T04:25:07.546Z,100.00
2023-03-01T04:26:42.525Z,100.00
2023-03-01T04:28:14.887Z,100.00
2023-03-01T04:29:52.983Z,100.00
2023-03-01T04:31:25.220Z,100.00
2023-03-01T04:32:57.437Z,100.00
2023-03-01T04:34:29.728Z,100.00
2023-03-01T04:36:02.001Z,100.00
2023-03-01T04:37:34.267Z,100.00
2023-03-01T04:40:51.579Z,100.00
2023-03-01T04:42:23.598Z,100.00
2023-03-01T04:43:55.533Z,100.00
2023-03-01T04:45:27.460Z,100.00
2023-03-01T04:46:59.453Z,100.00
2023-03-01T04:48:51.091Z,100.00
2023-03-01T04:50:24.636Z,100.00
2023-03-01T04:51:59.529Z,100.00
2023-03-01T04:53:31.627Z,100.00
2023-03-01T04:55:04.758Z,100.00
2023-03-01T04:56:36.917Z,100.00
2023-03-01T04:58:08.854Z,100.00
2023-03-01T04:59:40.756Z,100.00
2023-03-01T05:01:17.836Z,100.00
2023-03-01T05:02:58.430Z,100.00
2023-03-01T05:04:31.994Z,100.00
2023-03-01T05:06:04.094Z,100.00
2023-03-01T05:07:36.098Z,100.00
2023-03-01T05:09:08.160Z,100.00
2023-03-01T05:10:40.200Z,100.00
2023-03-01T05:12:12.144Z,100.00
2023-03-01T05:13:44.428Z,100.00
2023-03-01T05:15:16.361Z,100.00
2023-03-01T05:16:48.248Z,100.00
2023-03-01T05:18:20.271Z,100.00
2023-03-01T05:19:52.436Z,100.00
2023-03-01T05:21:24.703Z,100.00
2023-03-01T05:23:06.482Z,100.00
2023-03-01T05:24:39.827Z,100.00
2023-03-01T05:26:27.434Z,100.00
2023-03-01T05:28:05.608Z,100.00
2023-03-01T05:29:37.525Z,100.00
2023-03-01T05:31:10.875Z,100.00
2023-03-01T05:32:48.041Z,100.00
2023-03-01T05:34:25.190Z,100.00
2023-03-01T05:36:01.170Z,100.00
2023-03-01T05:37:33.108Z,100.00
2023-03-01T05:39:05.061Z,100.00
2023-03-01T05:40:39.568Z,100.00
2023-03-01T05:42:12.797Z,100.00
2023-03-01T05:43:46.192Z,100.00
2023-03-01T05:45:19.430Z,100.00
2023-03-01T05:46:51.483Z,100.00
2023-03-01T05:48:23.979Z,100.00
2023-03-01T05:49:56.115Z,100.00
2023-03-01T05:51:28.270Z,100.00
2023-03-01T05:53:09.136Z,100.00
2023-03-01T05:54:41.096Z,100.00
2023-03-01T05:56:13.060Z,100.00
2023-03-01T05:57:45.128Z,100.00
2023-03-01T05:59:17.524Z,100.00
2023-03-01T06:00:50.170Z,100.00
2023-03-01T06:02:22.220Z,100.00
2023-03-01T06:03:54.367Z,100.00
2023-03-01T06:05:26.485Z,100.00
2023-03-01T06:06:58.621Z,100.00
2023-03-01T06:08:31.207Z,100.00
2023-03-01T06:10:08.051Z,100.00
2023-03-01T06:11:40.134Z,100.00
2023-03-01T06:13:12.161Z,100.00
2023-03-01T06:14:44.380Z,100.00
2023-03-01T06:18:49.353Z,100.00
2023-03-01T06:20:23.227Z,100.00
2023-03-01T06:21:58.282Z,100.00
2023-03-01T06:23:31.427Z,100.00
2023-03-01T06:25:04.203Z,100.00
2023-03-01T06:26:39.483Z,100.00
2023-03-01T06:28:11.597Z,100.00
2023-03-01T06:29:43.679Z,100.00
2023-03-01T06:31:15.863Z,100.00
2023-03-01T06:32:53.759Z,100.00
2023-03-01T06:34:28.224Z,100.00
2023-03-01T06:36:00.318Z,100.00
2023-03-01T06:37:32.547Z,100.00
2023-03-01T06:39:06.008Z,100.00
2023-03-01T06:40:38.096Z,100.00
2023-03-01T06:42:11.382Z,100.00
2023-03-01T06:43:43.510Z,100.00
2023-03-01T06:45:20.831Z,100.00
2023-03-01T06:46:52.889Z,100.00
2023-03-01T06:48:25.086Z,100.00
2023-03-01T06:49:57.300Z,100.00
2023-03-01T06:51:29.518Z,100.00
2023-03-01T06:53:07.443Z,100.00
2023-03-01T06:54:42.140Z,100.00
2023-03-01T06:56:15.270Z,100.00
2023-03-01T06:57:47.423Z,100.00
2023-03-01T06:59:19.799Z,100.00
2023-03-01T07:00:52.026Z,100.00
2023-03-01T07:02:26.479Z,100.00
2023-03-01T07:03:58.940Z,100.00
2023-03-01T07:05:31.730Z,100.00
2023-03-01T07:07:07.260Z,100.00
2023-03-01T07:08:39.635Z,100.00
2023-03-01T07:10:12.560Z,100.00
2023-03-01T07:11:44.934Z,100.00
2023-03-01T07:13:17.080Z,100.00
2023-03-01T07:14:53.276Z,100.00
2023-03-01T07:16:29.072Z,100.00
2023-03-01T07:18:04.495Z,100.00
2023-03-01T07:19:39.865Z,100.00
2023-03-01T07:21:16.521Z,100.00
2023-03-01T07:22:49.566Z,100.00
2023-03-01T07:24:22.858Z,100.00
2023-03-01T07:25:55.944Z,100.00
2023-03-01T07:27:28.153Z,100.00
2023-03-01T07:29:06.942Z,100.00
2023-03-01T07:30:39.171Z,100.00
2023-03-01T07:32:14.542Z,100.00
2023-03-01T07:33:49.589Z,100.00
2023-03-01T07:35:27.836Z,100.00
2023-03-01T07:37:00.364Z,100.00
2023-03-01T07:38:35.808Z,100.00
2023-03-01T07:40:08.940Z,100.00
2023-03-01T07:41:46.106Z,100.00
2023-03-01T07:43:26.992Z,100.00
2023-03-01T07:45:07.361Z,100.00
2023-03-01T07:46:39.542Z,100.00
2023-03-01T07:48:13.598Z,100.00
2023-03-01T07:49:48.312Z,100.00
2023-03-01T07:51:26.559Z,100.00
2023-03-01T07:52:58.837Z,100.00
2023-03-01T07:54:35.638Z,100.00
2023-03-01T07:56:10.239Z,100.00
2023-03-01T07:57:44.966Z,100.00
2023-03-01T07:59:21.961Z,100.00
2023-03-01T08:00:54.259Z,100.00
2023-03-01T08:02:27.234Z,100.00
2023-03-01T08:03:59.544Z,100.00
2023-03-01T08:05:40.860Z,100.00
2023-03-01T08:07:16.264Z,100.00
2023-03-01T08:08:49.034Z,100.00
2023-03-01T08:10:46.763Z,100.00
2023-03-01T08:12:33.401Z,100.00
2023-03-01T08:14:12.891Z,100.00
2023-03-01T08:15:58.632Z,100.00
2023-03-01T08:17:51.447Z,100.00
2023-03-01T08:19:30.367Z,100.00
2023-03-01T08:21:08.063Z,100.00
2023-03-01T08:22:45.565Z,100.00
2023-03-01T08:24:17.769Z,100.00
2023-03-01T08:25:49.916Z,100.00
2023-03-01T08:27:25.606Z,100.00
2023-03-01T08:29:02.782Z,100.00
2023-03-01T08:30:44.033Z,100.00
2023-03-01T08:32:21.553Z,100.00
2023-03-01T08:36:41.801Z,100.00
2023-03-01T08:38:24.360Z,100.00
2023-03-01T08:40:24.792Z,100.00
2023-03-01T08:42:15.043Z,100.00
2023-03-01T08:43:48.137Z,100.00
2023-03-01T08:45:22.604Z,100.00
2023-03-01T08:46:56.802Z,100.00
2023-03-01T08:48:29.907Z,100.00
2023-03-01T08:50:04.467Z,100.00
2023-03-01T08:51:39.792Z,100.00
2023-03-01T08:53:12.543Z,100.00
2023-03-01T08:54:49.056Z,100.00
2023-03-01T08:56:24.839Z,100.00
2023-03-01T08:58:04.692Z,100.00
2023-03-01T08:59:41.942Z,100.00
2023-03-01T09:01:19.836Z,100.00
2023-03-01T09:02:55.167Z,100.00
2023-03-01T09:04:35.327Z,100.00
2023-03-01T09:06:08.715Z,100.00
2023-03-01T09:07:40.965Z,100.00
2023-03-01T09:09:17.752Z,97.72
2023-03-01T09:10:49.798Z,97.02
2023-03-01T09:12:22.262Z,96.10
2023-03-01T09:13:54.368Z,99.77
2023-03-01T09:15:26.649Z,98.74
2023-03-01T09:17:01.339Z,99.64
2023-03-01T09:18:33.985Z,98.84
2023-03-01T09:20:07.097Z,97.06
2023-03-01T09:21:40.978Z,95.44
2023-03-01T09:23:15.830Z,93.43
2023-03-01T09:24:53.212Z,92.89
2023-03-01T09:26:27.909Z,93.95
2023-03-01T09:28:05.485Z,88.30
2023-03-01T09:29:41.257Z,84.91
2023-03-01T09:31:14.242Z,84.06
2023-03-01T09:32:46.221Z,80.77
2023-03-01T09:34:24.238Z,90.38
2023-03-01T09:36:00.703Z,83.96
2023-03-01T09:37:37.643Z,82.44
2023-03-01T09:39:09.904Z,84.34
2023-03-01T09:40:51.113Z,82.63
2023-03-01T09:42:28.402Z,82.86
2023-03-01T09:44:24.379Z,76.34
2023-03-01T09:46:06.379Z,78.41
2023-03-01T09:47:44.105Z,81.62
2023-03-01T09:49:40.743Z,81.39
2023-03-01T09:56:50.930Z,75.08
2023-03-01T09:59:09.985Z,78.11
2023-03-01T10:00:50.436Z,72.48
2023-03-01T10:02:57.721Z,71.30
2023-03-01T10:04:41.150Z,68.21
2023-03-01T10:06:34.821Z,64.80
2023-03-01T10:08:37.090Z,68.99
2023-03-01T10:10:19.297Z,67.11
2023-03-01T10:12:04.203Z,68.07
2023-03-01T10:14:04.595Z,65.03
2023-03-01T10:15:41.446Z,66.24
2023-03-01T10:17:50.864Z,65.16
2023-03-01T10:19:30.811Z,63.69
2023-03-01T10:21:09.448Z,66.14
2023-03-01T10:22:53.138Z,64.65
2023-03-01T10:24:31.835Z,66.54
2023-03-01T10:26:30.653Z,63.24
2023-03-01T10:28:33.172Z,61.48
2023-03-01T10:30:21.193Z,59.18
2023-03-01T10:31:56.670Z,61.94
2023-03-01T10:33:32.298Z,61.55
2023-03-01T10:35:27.935Z,57.37
2023-03-01T10:37:17.152Z,56.22
2023-03-01T10:39:12.865Z,56.85
2023-03-01T10:41:04.548Z,56.90
2023-03-01T10:43:31.279Z,57.25
2023-03-01T10:45:25.927Z,57.06
2023-03-01T10:47:04.772Z,57.81
2023-03-01T10:48:39.594Z,57.23
2023-03-01T10:50:28.143Z,57.48
2023-03-01T10:52:36.203Z,59.78
2023-03-01T10:54:33.720Z,58.69
2023-03-01T10:56:20.501Z,59.06
2023-03-01T10:58:16.310Z,58.02
2023-03-01T11:00:22.699Z,55.74
2023-03-01T11:02:25.037Z,53.88
2023-03-01T11:04:06.538Z,53.67
2023-03-01T11:05:38.741Z,55.17
2023-03-01T11:07:10.986Z,54.96
2023-03-01T11:08:48.016Z,57.84
2023-03-01T11:10:22.434Z,58.96
2023-03-01T11:11:56.181Z,55.82
2023-03-01T11:13:28.334Z,57.46
2023-03-01T11:15:00.449Z,55.61
2023-03-01T11:16:35.999Z,55.54
2023-03-01T11:18:28.713Z,52.89
2023-03-01T11:20:17.034Z,52.28
2023-03-01T11:22:14.002Z,51.83
2023-03-01T11:23:48.337Z,52.16
2023-03-01T11:25:28.669Z,49.79
2023-03-01T11:27:13.195Z,51.46
2023-03-01T11:28:53.444Z,51.41
2023-03-01T11:30:30.585Z,52.01
2023-03-01T11:32:06.886Z,53.99
2023-03-01T11:35:45.958Z,53.57
2023-03-01T11:37:25.224Z,54.70
2023-03-01T11:38:59.925Z,52.93
2023-03-01T11:43:21.199Z,53.25
2023-03-01T11:45:59.821Z,50.92
2023-03-01T11:48:19.731Z,50.44
2023-03-01T11:50:15.875Z,51.77
2023-03-01T11:52:22.406Z,52.66
2023-03-01T11:54:28.015Z,50.51
2023-03-01T11:56:16.904Z,51.53
2023-03-01T11:58:24.098Z,53.33
2023-03-01T12:00:22.433Z,50.61
2023-03-01T12:02:17.514Z,54.06
2023-03-01T12:04:25.905Z,54.35
2023-03-01T12:06:46.218Z,50.45
2023-03-01T12:08:49.459Z,53.30
2023-03-01T12:10:39.718Z,54.38
2023-03-01T12:12:34.685Z,53.88
2023-03-01T12:14:23.132Z,54.80
2023-03-01T12:16:39.027Z,54.74
2023-03-01T12:18:28.820Z,53.35
2023-03-01T12:20:34.538Z,55.09
2023-03-01T12:22:48.221Z,55.28
2023-03-01T12:24:56.858Z,51.72
2023-03-01T12:27:02.092Z,53.67
2023-03-01T12:28:53.878Z,55.29
2023-03-01T12:31:10.521Z,54.32
2023-03-01T12:33:22.159Z,52.86
2023-03-01T12:35:33.973Z,52.93
2023-03-01T12:37:20.902Z,52.68
2023-03-01T12:39:14.366Z,52.19
2023-03-01T12:41:10.868Z,52.14
2023-03-01T12:43:42.709Z,53.29
2023-03-01T12:45:30.413Z,54.23
2023-03-01T12:47:20.627Z,54.32
2023-03-01T12:49:08.105Z,54.78
2023-03-01T12:50:53.782Z,52.36
2023-03-01T12:52:50.810Z,50.42
2023-03-01T12:54:48.019Z,52.64
2023-03-01T12:56:48.838Z,51.37
2023-03-01T12:58:49.818Z,52.35
2023-03-01T13:00:39.970Z,53.74
2023-03-01T13:02:24.852Z,51.94
2023-03-01T13:04:26.700Z,53.47
2023-03-01T13:06:24.237Z,51.01
2023-03-01T13:08:21.752Z,52.11
2023-03-01T13:12:47.975Z,51.59
2023-03-01T13:14:24.278Z,53.54
2023-03-01T13:16:51.869Z,52.56
2023-03-01T13:18:57.352Z,52.70
2023-03-01T13:21:11.057Z,52.85
2023-03-01T13:27:58.401Z,50.34
2023-03-01T13:29:52.294Z,53.32
2023-03-01T13:31:51.907Z,53.92
2023-03-01T13:33:47.194Z,53.56
2023-03-01T13:35:30.176Z,52.97
2023-03-01T13:37:33.734Z,53.69
2023-03-01T13:39:53.462Z,53.86
2023-03-01T13:44:45.213Z,53.02
2023-03-01T13:46:35.363Z,53.49
2023-03-01T13:49:45.889Z,54.30
2023-03-01T13:51:19.584Z,51.67
2023-03-01T13:53:24.178Z,53.81
2023-03-01T13:54:57.493Z,53.74
2023-03-01T13:56:40.395Z,53.03
2023-03-01T13:58:47.513Z,51.03
2023-03-01T14:00:59.243Z,53.94
2023-03-01T14:03:06.171Z,52.63
2023-03-01T14:05:30.874Z,53.95
2023-03-01T14:10:25.352Z,54.47
2023-03-01T14:12:59.672Z,53.34
2023-03-01T14:15:25.762Z,54.89
2023-03-01T14:17:46.125Z,53.02
2023-03-01T14:21:43.545Z,55.22
2023-03-01T14:27:00.325Z,51.87
2023-03-01T14:28:46.209Z,51.88
2023-03-01T14:30:56.662Z,52.91
2023-03-01T14:32:59.144Z,51.92
2023-03-01T14:34:34.594Z,51.74
2023-03-01T14:36:15.235Z,51.23
2023-03-01T14:37:47.435Z,52.08
2023-03-01T14:39:24.291Z,52.96
2023-03-01T14:41:02.473Z,51.96
2023-03-01T14:42:37.751Z,53.49
2023-03-01T14:44:20.094Z,52.75
2023-03-01T14:45:52.645Z,52.74
2023-03-01T14:47:43.485Z,53.87
2023-03-01T14:49:28.452Z,52.71
2023-03-01T14:51:01.872Z,53.58
2023-03-01T14:52:39.819Z,53.05
2023-03-01T14:54:39.164Z,54.05
2023-03-01T14:56:18.715Z,52.79
2023-03-01T14:57:54.286Z,51.89
2023-03-01T14:59:30.095Z,53.98
2023-03-01T15:01:04.682Z,52.92
2023-03-01T15:02:36.859Z,52.67
2023-03-01T15:04:15.091Z,53.55
2023-03-01T15:05:50.439Z,54.01
2023-03-01T15:07:23.821Z,50.43
2023-03-01T15:08:58.093Z,51.31
2023-03-01T15:10:37.422Z,49.45
2023-03-01T15:12:40.801Z,49.62
2023-03-01T15:14:41.258Z,50.58
2023-03-01T15:16:23.574Z,51.07
2023-03-01T15:17:57.656Z,52.16
2023-03-01T15:19:30.307Z,51.11
2023-03-01T15:21:16.542Z,51.85
2023-03-01T15:22:51.991Z,51.56
2023-03-01T15:24:28.760Z,52.00
2023-03-01T15:26:01.710Z,53.27
2023-03-01T15:27:33.855Z,52.19
2023-03-01T15:29:11.653Z,51.66
2023-03-01T15:30:43.903Z,50.16
2023-03-01T15:32:34.914Z,50.48
2023-03-01T15:34:27.898Z,51.96
2023-03-01T15:36:03.430Z,52.42
2023-03-01T15:37:51.773Z,53.32
2023-03-01T15:39:45.541Z,53.51
2023-03-01T15:41:29.837Z,53.57
2023-03-01T15:43:14.673Z,53.74
2023-03-01T15:44:48.001Z,53.17
2023-03-01T15:46:36.297Z,54.70
2023-03-01T15:48:21.413Z,53.97
2023-03-01T15:49:57.341Z,54.40
2023-03-01T15:51:38.365Z,54.38
2023-03-01T15:53:15.577Z,54.28
2023-03-01T15:54:48.016Z,54.84
2023-03-01T15:56:20.750Z,52.54
2023-03-01T15:58:05.443Z,54.14
2023-03-01T15:59:54.684Z,54.35
2023-03-01T16:01:32.179Z,53.21
2023-03-01T16:03:10.445Z,53.50
2023-03-01T16:04:44.068Z,53.80
2023-03-01T16:06:19.175Z,54.71
2023-03-01T16:07:55.003Z,53.93
2023-03-01T16:09:29.659Z,53.85
2023-03-01T16:11:05.842Z,54.63
2023-03-01T16:12:48.322Z,55.39
2023-03-01T16:14:23.550Z,56.12
2023-03-01T16:16:06.127Z,56.46
2023-03-01T16:20:28.831Z,56.66
2023-03-01T16:20:35.052Z,55.74
2023-03-01T16:22:18.943Z,57.57
2023-03-01T16:24:01.603Z,57.05
2023-03-01T16:29:08.372Z,55.98
2023-03-01T16:32:21.139Z,55.26
2023-03-01T16:33:59.100Z,56.56
2023-03-01T16:35:35.628Z,58.00
2023-03-01T16:39:06.819Z,55.39
2023-03-01T16:43:10.162Z,56.18
2023-03-01T17:49:50.256Z,65.40
2023-03-01T19:16:53.372Z,88.71
2023-03-01T19:18:31.018Z,91.07
2023-03-01T19:20:28.886Z,91.71
2023-03-01T19:34:20.372Z,94.07
2023-03-01T19:35:59.384Z,92.19
2023-03-01T19:37:35.493Z,92.99
2023-03-01T19:39:12.509Z,93.68
2023-03-01T19:40:47.555Z,94.05
2023-03-01T19:42:19.811Z,91.71
2023-03-01T19:43:52.185Z,92.08
2023-03-01T19:45:32.954Z,91.68
2023-03-01T19:47:05.506Z,91.49
2023-03-01T19:48:43.384Z,91.78
2023-03-01T19:50:15.550Z,92.72
2023-03-01T19:51:49.726Z,91.62
2023-03-01T19:53:24.618Z,91.50
2023-03-01T19:55:08.617Z,92.11
2023-03-01T19:56:44.793Z,91.19
2023-03-01T19:58:24.834Z,91.15
2023-03-01T20:00:03.966Z,92.74
2023-03-01T20:01:44.524Z,93.68
2023-03-01T20:03:19.076Z,92.33
2023-03-01T20:04:58.764Z,92.61
2023-03-01T20:06:43.171Z,92.09
2023-03-01T20:08:15.331Z,93.70
2023-03-01T20:09:47.325Z,94.54
2023-03-01T20:11:20.138Z,94.58
2023-03-01T20:12:53.494Z,95.79
2023-03-01T20:14:27.834Z,96.54
2023-03-01T20:16:03.142Z,96.03
2023-03-01T20:17:38.174Z,95.91
2023-03-01T20:19:13.256Z,95.88
2023-03-01T20:20:50.141Z,94.35
2023-03-01T20:22:23.688Z,94.65
2023-03-01T20:24:01.502Z,94.42
2023-03-01T20:25:36.842Z,93.81
2023-03-01T20:27:11.954Z,96.03
2023-03-01T20:28:49.196Z,96.06
2023-03-01T20:30:23.750Z,96.28
2023-03-01T20:31:58.825Z,96.51
2023-03-01T20:33:31.486Z,96.52
2023-03-01T20:35:07.304Z,97.51
2023-03-01T20:36:44.912Z,97.81
2023-03-01T20:38:17.014Z,95.95
2023-03-01T20:39:49.823Z,95.88
2023-03-01T20:41:26.107Z,97.30
2023-03-01T20:43:12.409Z,97.36
2023-03-01T20:44:44.776Z,99.52
2023-03-01T20:46:16.776Z,97.88
2023-03-01T20:47:49.775Z,98.74
2023-03-01T20:49:21.886Z,98.08
2023-03-01T20:50:53.884Z,99.23
2023-03-01T20:52:26.454Z,99.20
2023-03-01T20:53:58.510Z,99.42
2023-03-01T20:55:30.465Z,97.75
2023-03-01T20:57:03.588Z,97.60
2023-03-01T20:58:38.067Z,98.89
2023-03-01T21:00:10.691Z,99.43
2023-03-01T21:01:42.729Z,98.09
2023-03-01T21:03:15.933Z,97.75
2023-03-01T21:04:47.837Z,98.19
2023-03-01T21:06:19.935Z,100.00
2023-03-01T21:07:52.050Z,100.00
2023-03-01T21:09:24.116Z,99.93
2023-03-01T21:10:59.143Z,98.94
2023-03-01T21:12:31.450Z,97.48
2023-03-01T21:14:05.738Z,100.00
2023-03-01T21:15:39.964Z,100.00
2023-03-01T21:17:14.186Z,100.00
2023-03-01T21:18:46.211Z,100.00
2023-03-01T21:20:19.980Z,99.64
2023-03-01T21:21:52.658Z,100.00
2023-03-01T21:23:24.892Z,100.00
2023-03-01T21:24:56.957Z,100.00
2023-03-01T21:26:28.999Z,100.00
2023-03-01T21:28:04.121Z,100.00
2023-03-01T21:29:41.199Z,100.00
2023-03-01T21:31:27.697Z,100.00
2023-03-01T21:33:02.451Z,100.00
2023-03-01T21:34:35.134Z,100.00
2023-03-01T21:36:10.878Z,100.00
2023-03-01T21:37:42.939Z,100.00
2023-03-01T21:39:15.146Z,100.00
2023-03-01T21:40:47.329Z,100.00
2023-03-01T21:42:19.288Z,100.00
2023-03-01T21:43:57.026Z,100.00
2023-03-01T21:45:29.050Z,100.00
2023-03-01T21:47:02.479Z,100.00
2023-03-01T21:48:38.584Z,100.00
2023-03-01T21:50:12.570Z,100.00
2023-03-01T21:51:45.711Z,100.00
2023-03-01T21:53:20.554Z,100.00
2023-03-01T21:54:52.608Z,100.00
2023-03-01T21:56:30.883Z,100.00
2023-03-01T21:58:03.656Z,100.00
2023-03-01T21:59:36.027Z,100.00
2023-03-01T22:01:10.170Z,100.00
2023-03-01T22:02:42.282Z,100.00
2023-03-01T22:04:18.495Z,100.00
2023-03-01T22:06:00.464Z,100.00
2023-03-01T22:07:32.529Z,100.00
2023-03-01T22:09:10.541Z,100.00
2023-03-01T22:10:43.752Z,100.00
2023-03-01T22:12:15.812Z,100.00
2023-03-01T22:13:51.924Z,100.00
2023-03-01T22:15:24.874Z,100.00
2023-03-01T22:16:59.760Z,100.00
2023-03-01T22:18:31.724Z,100.00
2023-03-01T22:20:03.878Z,100.00
2023-03-01T22:21:44.233Z,100.00
2023-03-01T22:23:18.497Z,100.00
2023-03-01T22:24:50.602Z,100.00
2023-03-01T22:26:26.514Z,100.00
2023-03-01T22:27:58.975Z,100.00
2023-03-01T22:29:31.058Z,100.00
2023-03-01T22:31:05.130Z,100.00
2023-03-01T22:32:40.520Z,100.00
2023-03-01T22:34:15.254Z,100.00
2023-03-01T22:35:47.448Z,100.00
2023-03-01T22:37:19.443Z,100.00
2023-03-01T22:38:58.737Z,100.00
2023-03-01T22:40:30.800Z,100.00
2023-03-01T22:42:02.983Z,100.00
2023-03-01T22:43:35.380Z,100.00
2023-03-01T22:45:07.909Z,100.00
2023-03-01T22:46:40.510Z,100.00
2023-03-01T22:48:12.687Z,100.00
2023-03-01T22:49:44.729Z,100.00
2023-03-01T22:51:24.856Z,100.00
2023-03-01T22:52:56.884Z,100.00
2023-03-01T22:54:28.867Z,100.00
2023-03-01T22:56:15.608Z,100.00
2023-03-01T22:57:51.224Z,100.00
2023-03-01T22:59:23.363Z,100.00
2023-03-01T23:00:55.412Z,100.00
2023-03-01T23:02:28.709Z,100.00
2023-03-01T23:04:01.081Z,100.00
2023-03-01T23:05:33.167Z,100.00
2023-03-01T23:07:05.200Z,100.00
2023-03-01T23:08:37.390Z,100.00
2023-03-01T23:10:10.339Z,100.00
2023-03-01T23:11:42.298Z,100.00
2023-03-01T23:13:14.181Z,100.00
2023-03-01T23:14:46.440Z,100.00
2023-03-01T23:16:19.196Z,100.00
2023-03-01T23:17:51.079Z,100.00
2023-03-01T23:19:23.244Z,100.00
2023-03-01T23:20:55.285Z,100.00
2023-03-01T23:22:30.609Z,100.00
2023-03-01T23:24:02.834Z,100.00
2023-03-01T23:25:35.003Z,100.00
2023-03-01T23:27:07.190Z,100.00
2023-03-01T23:28:41.060Z,100.00
2023-03-01T23:30:13.332Z,100.00
2023-03-01T23:31:45.416Z,100.00
2023-03-01T23:33:19.917Z,100.00
2023-03-01T23:34:54.321Z,100.00
2023-03-01T23:36:28.903Z,100.00
2023-03-01T23:38:10.194Z,100.00
2023-03-01T23:39:42.124Z,100.00
2023-03-01T23:41:16.344Z,100.00
2023-03-01T23:42:48.418Z,100.00
2023-03-01T23:44:21.602Z,100.00
2023-03-01T23:45:54.616Z,100.00
2023-03-01T23:47:26.568Z,100.00
2023-03-01T23:48:59.090Z,100.00
2023-03-01T23:50:31.111Z,100.00
2023-03-01T23:52:03.102Z,100.00
2023-03-01T23:53:38.756Z,100.00
2023-03-01T23:55:11.970Z,100.00
2023-03-01T23:56:44.730Z,100.00
2023-03-01T23:58:20.057Z,100.00
2023-03-01T23:59:52.063Z,100.00
